createdAt,value
2022-09-07T00:03:21.937Z,17.88
2022-09-07T00:06:45.832Z,18.62
2022-09-07T00:10:09.917Z,17.54
2022-09-07T00:13:33.871Z,18.30
2022-09-07T00:16:57.925Z,18.27
2022-09-07T00:20:22.841Z,17.83
2022-09-07T00:23:41.896Z,18.38
2022-09-07T00:27:05.844Z,19.02
2022-09-07T00:30:29.877Z,18.75
2022-09-07T00:33:53.861Z,18.13
2022-09-07T00:37:17.886Z,18.81
2022-09-07T00:40:41.848Z,19.08
2022-09-07T00:44:09.889Z,19.91
2022-09-07T00:47:40.932Z,19.25
2022-09-07T00:51:10.850Z,20.16
2022-09-07T00:54:44.868Z,19.62
2022-09-07T00:58:09.978Z,18.77
2022-09-07T01:01:35.031Z,18.61
2022-09-07T01:05:00.953Z,19.16
2022-09-07T01:08:25.857Z,19.18
2022-09-07T01:11:51.912Z,19.28
2022-09-07T01:15:15.885Z,19.53
2022-09-07T01:18:55.886Z,17.72
2022-09-07T01:22:56.899Z,16.79
2022-09-07T01:26:46.926Z,17.54
2022-09-07T01:30:19.897Z,17.47
2022-09-07T01:33:53.800Z,17.87
2022-09-07T01:37:30.897Z,18.31
2022-09-07T01:40:59.911Z,17.04
2022-09-07T01:44:29.942Z,17.14
2022-09-07T01:47:58.928Z,17.60
2022-09-07T01:51:22.924Z,17.21
2022-09-07T01:54:54.913Z,17.50
2022-09-07T01:58:38.950Z,17.17
2022-09-07T02:02:08.956Z,17.09
2022-09-07T02:05:35.951Z,17.24
2022-09-07T02:09:19.874Z,17.27
2022-09-07T02:12:52.948Z,17.38
2022-09-07T02:16:22.948Z,16.94
2022-09-07T02:19:51.921Z,16.63
2022-09-07T02:23:19.914Z,16.32
2022-09-07T02:26:43.952Z,16.50
2022-09-07T02:30:07.946Z,16.57
2022-09-07T02:33:31.913Z,16.37
2022-09-07T02:36:59.957Z,16.31
2022-09-07T02:40:25.909Z,15.84
2022-09-07T02:43:50.921Z,15.87
2022-09-07T02:47:20.982Z,15.83
2022-09-07T02:51:11.895Z,15.71
2022-09-07T02:55:01.927Z,15.94
2022-09-07T02:58:35.891Z,15.81
2022-09-07T03:02:35.025Z,15.56
2022-09-07T03:06:14.962Z,15.84
2022-09-07T03:09:42.979Z,16.01
2022-09-07T03:13:08.013Z,15.60
2022-09-07T03:16:32.116Z,16.04
2022-09-07T03:19:54.923Z,15.99
2022-09-07T03:23:18.976Z,16.16
2022-09-07T03:26:36.501Z,15.72
2022-09-07T03:29:54.983Z,15.91
2022-09-07T03:33:18.965Z,15.54
2022-09-07T03:36:43.977Z,15.42
2022-09-07T03:40:07.040Z,15.60
2022-09-07T03:43:30.994Z,15.78
2022-09-07T03:46:56.006Z,15.12
2022-09-07T03:50:21.000Z,15.00
2022-09-07T03:53:49.935Z,15.40
2022-09-07T03:57:13.953Z,15.64
2022-09-07T04:00:36.971Z,15.41
2022-09-07T04:04:02.492Z,15.34
2022-09-07T04:07:26.982Z,15.26
2022-09-07T04:10:55.018Z,15.34
2022-09-07T04:14:18.930Z,15.45
2022-09-07T04:17:41.978Z,15.46
2022-09-07T04:21:05.992Z,15.50
2022-09-07T04:24:30.976Z,15.04
2022-09-07T04:27:48.520Z,15.12
2022-09-07T04:31:11.050Z,14.98
2022-09-07T04:34:35.952Z,15.13
2022-09-07T04:38:00.033Z,14.72
2022-09-07T04:41:30.007Z,14.78
2022-09-07T04:44:53.992Z,15.15
2022-09-07T04:48:18.010Z,15.04
2022-09-07T04:51:43.983Z,14.84
2022-09-07T04:55:08.026Z,14.55
2022-09-07T04:58:31.091Z,14.51
2022-09-07T05:01:55.039Z,14.83
2022-09-07T05:05:20.001Z,14.70
2022-09-07T05:08:44.017Z,14.73
2022-09-07T05:12:07.986Z,14.84
2022-09-07T05:15:30.986Z,14.58
2022-09-07T05:18:55.979Z,14.57
2022-09-07T05:22:19.946Z,14.71
2022-09-07T05:25:44.982Z,14.65
2022-09-07T05:32:55.950Z,14.29
2022-09-07T05:36:21.024Z,14.39
2022-09-07T05:39:46.003Z,14.42
2022-09-07T05:43:10.044Z,14.46
2022-09-07T05:46:35.042Z,14.27
2022-09-07T05:49:58.966Z,14.33
2022-09-07T05:53:23.001Z,14.34
2022-09-07T05:56:49.977Z,14.25
2022-09-07T06:00:13.999Z,14.12
2022-09-07T06:03:37.983Z,13.90
2022-09-07T06:10:48.011Z,13.87
2022-09-07T06:14:12.012Z,14.05
2022-09-07T06:17:35.066Z,14.23
2022-09-07T06:20:51.998Z,13.98
2022-09-07T06:24:16.032Z,13.82
2022-09-07T06:27:40.056Z,13.82
2022-09-07T06:30:58.743Z,13.79
2022-09-07T06:34:17.078Z,13.66
2022-09-07T06:37:40.988Z,13.57
2022-09-07T06:44:50.034Z,13.75
2022-09-07T06:48:15.022Z,13.79
2022-09-07T06:51:40.057Z,13.82
2022-09-07T06:55:05.013Z,13.74
2022-09-07T06:58:29.111Z,13.49
2022-09-07T07:01:53.042Z,13.42
2022-09-07T07:05:17.999Z,13.20
2022-09-07T07:08:42.029Z,13.24
2022-09-07T07:12:07.054Z,13.10
2022-09-07T07:15:32.095Z,13.16
2022-09-07T07:19:00.069Z,13.45
2022-09-07T07:22:46.188Z,13.41
2022-09-07T07:26:07.060Z,13.28
2022-09-07T07:29:31.087Z,13.45
2022-09-07T07:32:56.138Z,13.35
2022-09-07T07:36:40.009Z,13.41
2022-09-07T07:40:20.459Z,13.27
2022-09-07T07:43:46.999Z,13.40
2022-09-07T07:47:11.026Z,13.61
2022-09-07T07:50:35.112Z,13.40
2022-09-07T07:53:58.433Z,13.49
2022-09-07T07:57:27.104Z,13.53
2022-09-07T08:00:55.419Z,13.26
2022-09-07T08:04:21.015Z,13.20
2022-09-07T08:07:45.087Z,13.48
2022-09-07T08:11:10.044Z,13.48
2022-09-07T08:14:34.026Z,13.52
2022-09-07T08:17:57.971Z,13.61
2022-09-07T08:21:27.023Z,13.34
2022-09-07T08:24:52.012Z,13.31
2022-09-07T08:28:16.071Z,13.23
2022-09-07T08:31:34.725Z,13.11
2022-09-07T08:34:52.060Z,12.97
2022-09-07T08:38:19.145Z,12.96
2022-09-07T08:42:06.067Z,13.19
2022-09-07T08:45:49.053Z,13.09
2022-09-07T08:49:14.020Z,13.03
2022-09-07T08:52:39.050Z,12.97
2022-09-07T08:56:10.025Z,12.98
2022-09-07T08:59:58.079Z,12.78
2022-09-07T09:04:15.118Z,12.86
2022-09-07T09:07:19.057Z,12.73
2022-09-07T09:11:03.013Z,12.41
2022-09-07T09:14:46.050Z,12.35
2022-09-07T09:18:38.063Z,12.38
2022-09-07T09:22:02.071Z,12.17
2022-09-07T09:25:43.051Z,12.18
2022-09-07T09:29:07.051Z,12.07
2022-09-07T09:32:56.079Z,11.85
2022-09-07T09:36:40.060Z,11.59
2022-09-07T09:40:15.134Z,11.47
2022-09-07T09:44:06.097Z,11.37
2022-09-07T09:47:46.124Z,11.23
2022-09-07T09:54:50.085Z,11.11
2022-09-07T10:05:46.063Z,10.90
2022-09-07T10:09:18.096Z,10.82
2022-09-07T10:12:46.059Z,10.57
2022-09-07T10:16:12.142Z,10.48
2022-09-07T10:19:52.580Z,10.36
2022-09-07T10:23:17.150Z,10.44
2022-09-07T10:26:43.102Z,10.34
2022-09-07T10:30:06.985Z,10.43
2022-09-07T10:38:25.246Z,10.49
2022-09-07T10:42:08.123Z,10.47
2022-09-07T10:45:35.083Z,10.56
2022-09-07T10:49:09.073Z,10.36
2022-09-07T10:52:54.083Z,10.53
2022-09-07T10:56:47.123Z,10.64
2022-09-07T11:00:21.082Z,10.65
2022-09-07T11:04:17.065Z,10.44
2022-09-07T11:07:44.098Z,10.48
2022-09-07T11:12:00.799Z,10.43
2022-09-07T11:15:18.131Z,10.52
2022-09-07T11:18:48.087Z,10.46
2022-09-07T11:22:19.134Z,10.62
2022-09-07T11:26:05.129Z,10.73
2022-09-07T11:29:33.059Z,10.72
2022-09-07T11:33:06.059Z,10.88
2022-09-07T11:36:24.647Z,10.75
2022-09-07T11:39:56.259Z,10.83
2022-09-07T11:43:35.103Z,10.79
2022-09-07T11:47:02.104Z,10.76
2022-09-07T11:50:34.134Z,10.71
2022-09-07T11:54:04.117Z,10.56
2022-09-07T11:57:54.930Z,10.70
2022-09-07T12:01:35.102Z,10.90
2022-09-07T12:05:20.104Z,10.76
2022-09-07T12:09:24.149Z,10.67
2022-09-07T12:13:07.129Z,10.65
2022-09-07T12:16:36.142Z,10.58
2022-09-07T12:20:02.121Z,10.25
2022-09-07T12:23:32.105Z,10.36
2022-09-07T12:26:56.121Z,10.25
2022-09-07T12:30:20.142Z,10.13
2022-09-07T12:33:51.124Z,10.03
2022-09-07T12:37:35.106Z,10.04
2022-09-07T12:41:06.130Z,9.95
2022-09-07T12:44:38.157Z,10.04
2022-09-07T12:48:12.085Z,10.01
2022-09-07T12:59:55.225Z,9.85
2022-09-07T13:03:54.091Z,9.85
2022-09-07T13:07:40.161Z,9.90
2022-09-07T13:11:05.120Z,9.98
2022-09-07T13:14:23.251Z,9.83
2022-09-07T13:17:52.105Z,10.01
2022-09-07T13:21:25.174Z,10.05
2022-09-07T13:25:05.109Z,10.12
2022-09-07T13:28:36.176Z,10.12
2022-09-07T13:33:07.953Z,10.06
2022-09-07T13:36:13.157Z,10.20
2022-09-07T13:39:37.170Z,10.31
2022-09-07T13:43:01.191Z,10.38
2022-09-07T13:47:02.141Z,10.25
2022-09-07T13:50:56.142Z,10.18
2022-09-07T13:54:41.138Z,10.18
2022-09-07T13:58:05.135Z,10.08
2022-09-07T14:01:29.213Z,10.17
2022-09-07T14:04:58.194Z,10.20
2022-09-07T14:08:39.801Z,10.22
2022-09-07T14:12:05.155Z,10.26
2022-09-07T14:15:53.104Z,10.37
2022-09-07T14:19:25.176Z,10.13
2022-09-07T14:22:53.390Z,10.20
2022-09-07T14:26:37.186Z,10.28
2022-09-07T14:30:00.186Z,10.21
2022-09-07T14:33:29.421Z,10.16
2022-09-07T14:36:55.171Z,10.04
2022-09-07T14:40:20.242Z,10.02
2022-09-07T14:43:52.174Z,9.91
2022-09-07T14:47:30.202Z,9.72
2022-09-07T14:51:13.071Z,9.46
2022-09-07T14:54:46.259Z,9.34
2022-09-07T14:58:35.165Z,9.15
2022-09-07T15:02:00.231Z,8.90
2022-09-07T15:05:31.126Z,8.81
2022-09-07T15:09:01.167Z,8.76
2022-09-07T15:12:38.669Z,8.64
2022-09-07T15:16:05.197Z,8.61
2022-09-07T15:19:32.158Z,8.41
2022-09-07T15:22:55.208Z,8.51
2022-09-07T15:30:03.189Z,8.21
2022-09-07T15:33:27.159Z,8.14
2022-09-07T15:36:52.462Z,8.19
2022-09-07T15:40:16.250Z,8.24
2022-09-07T15:43:37.446Z,8.02
2022-09-07T15:50:41.944Z,7.74
2022-09-07T15:54:11.570Z,7.51
2022-09-07T15:57:59.435Z,7.74
2022-09-07T16:05:04.260Z,7.60
2022-09-07T16:08:32.829Z,7.61
2022-09-07T16:12:59.867Z,7.67
2022-09-07T16:15:45.182Z,7.60
2022-09-07T16:19:09.235Z,7.50
2022-09-07T16:26:17.187Z,7.34
2022-09-07T16:29:41.230Z,7.02
2022-09-07T16:33:06.347Z,7.17
2022-09-07T16:36:33.157Z,7.02
2022-09-07T16:40:00.398Z,6.97
2022-09-07T16:43:24.159Z,7.04
2022-09-07T16:46:48.231Z,7.00
2022-09-07T16:50:12.154Z,6.70
2022-09-07T16:53:37.244Z,6.53
2022-09-07T16:57:02.202Z,6.51
2022-09-07T17:00:26.190Z,6.58
2022-09-07T17:03:51.261Z,6.70
2022-09-07T17:07:15.214Z,6.78
2022-09-07T17:10:39.197Z,6.85
2022-09-07T17:14:03.219Z,6.90
2022-09-07T17:17:28.234Z,6.69
2022-09-07T17:20:51.219Z,6.72
2022-09-07T17:24:15.232Z,6.74
2022-09-07T17:27:40.498Z,6.88
2022-09-07T17:31:05.275Z,6.63
2022-09-07T17:34:28.180Z,6.77
2022-09-07T17:37:52.314Z,6.52
2022-09-07T17:41:29.179Z,6.08
2022-09-07T17:44:53.263Z,6.17
2022-09-07T17:48:17.205Z,5.99
2022-09-07T17:51:42.200Z,6.04
2022-09-07T17:55:06.206Z,5.94
2022-09-07T17:58:30.240Z,5.75
2022-09-07T18:01:54.363Z,5.64
2022-09-07T18:05:19.230Z,5.53
2022-09-07T18:08:43.221Z,5.34
2022-09-07T18:12:06.242Z,5.23
2022-09-07T18:15:30.212Z,5.27
2022-09-07T18:18:54.272Z,5.43
2022-09-07T18:22:18.194Z,5.21
2022-09-07T18:25:44.224Z,5.16
2022-09-07T18:29:27.343Z,5.17
2022-09-07T18:32:52.242Z,5.21
2022-09-07T18:36:18.184Z,5.17
2022-09-07T18:39:43.288Z,5.33
2022-09-07T18:43:09.211Z,5.52
2022-09-07T18:46:36.331Z,5.48
2022-09-07T18:50:01.206Z,5.43
2022-09-07T18:53:25.234Z,5.33
2022-09-07T18:56:49.214Z,5.47
2022-09-07T19:00:14.236Z,5.58
2022-09-07T19:03:38.253Z,5.84
2022-09-07T19:07:03.272Z,7.04
2022-09-07T19:10:27.255Z,7.49
2022-09-07T19:13:52.229Z,8.52
2022-09-07T19:17:19.204Z,9.35
2022-09-07T19:20:43.279Z,9.85
2022-09-07T19:24:12.257Z,9.99
2022-09-07T19:27:36.282Z,10.60
2022-09-07T19:31:00.263Z,10.74
2022-09-07T19:34:25.266Z,10.48
2022-09-07T19:37:58.253Z,10.35
2022-09-07T19:41:25.246Z,10.00
2022-09-07T19:44:49.281Z,9.95
2022-09-07T19:48:14.334Z,10.82
2022-09-07T19:51:39.217Z,11.45
2022-09-07T19:55:05.302Z,11.64
2022-09-07T19:58:29.213Z,11.70
2022-09-07T20:01:56.253Z,11.95
2022-09-07T20:05:22.221Z,11.55
2022-09-07T20:08:47.295Z,12.03
2022-09-07T20:12:12.259Z,12.27
2022-09-07T20:15:37.269Z,12.25
2022-09-07T20:19:01.293Z,11.64
2022-09-07T20:22:25.231Z,11.56
2022-09-07T20:25:49.292Z,11.23
2022-09-07T20:29:27.384Z,11.67
2022-09-07T20:32:52.240Z,12.03
2022-09-07T20:36:21.231Z,12.01
2022-09-07T20:39:45.303Z,12.48
2022-09-07T20:43:10.419Z,12.80
2022-09-07T20:46:28.867Z,12.27
2022-09-07T20:49:47.308Z,12.55
2022-09-07T20:53:12.274Z,13.01
2022-09-07T20:56:41.317Z,13.37
2022-09-07T21:00:05.295Z,13.41
2022-09-07T21:03:29.360Z,14.14
2022-09-07T21:06:53.297Z,13.86
2022-09-07T21:10:17.283Z,14.02
2022-09-07T21:13:41.297Z,14.40
2022-09-07T21:17:05.318Z,14.33
2022-09-07T21:20:30.299Z,14.26
2022-09-07T21:23:54.279Z,14.56
2022-09-07T21:27:18.264Z,15.25
2022-09-07T21:30:42.317Z,15.16
2022-09-07T21:34:10.291Z,16.00
2022-09-07T21:37:35.308Z,14.66
2022-09-07T21:40:59.340Z,15.49
2022-09-07T21:44:23.251Z,16.19
2022-09-07T21:47:47.280Z,15.54
2022-09-07T21:51:12.256Z,16.26
2022-09-07T21:54:28.294Z,15.91
2022-09-07T21:57:52.296Z,16.09
2022-09-07T22:01:27.373Z,16.44
2022-09-07T22:04:52.322Z,16.72
2022-09-07T22:08:16.269Z,17.01
2022-09-07T22:11:44.156Z,16.65
2022-09-07T22:15:11.316Z,15.48
2022-09-07T22:18:38.364Z,17.46
2022-09-07T22:22:02.278Z,18.04
2022-09-07T22:25:25.324Z,17.41
2022-09-07T22:28:49.322Z,16.31
2022-09-07T22:32:12.316Z,17.12
2022-09-07T22:35:38.282Z,16.87
2022-09-07T22:39:04.331Z,15.88
2022-09-07T22:42:29.327Z,17.18
2022-09-07T22:45:53.321Z,17.11
2022-09-07T22:49:11.587Z,17.64
2022-09-07T22:52:28.330Z,18.48
2022-09-07T22:55:54.317Z,18.45
2022-09-07T22:59:22.356Z,18.68
2022-09-07T23:02:46.351Z,17.90
2022-09-07T23:06:10.327Z,19.03
2022-09-07T23:09:34.314Z,19.57
2022-09-07T23:12:58.299Z,19.12
2022-09-07T23:16:22.444Z,19.64
2022-09-07T23:19:46.334Z,19.41
2022-09-07T23:23:10.373Z,18.06
2022-09-07T23:26:35.287Z,17.46
2022-09-07T23:29:59.480Z,17.46
2022-09-07T23:33:23.347Z,17.29
2022-09-07T23:36:47.384Z,17.17
2022-09-07T23:40:11.415Z,18.39
2022-09-07T23:43:38.410Z,19.06
2022-09-07T23:47:02.360Z,18.50
2022-09-07T23:50:26.393Z,19.62
2022-09-07T23:53:50.353Z,19.26
2022-09-07T23:57:15.396Z,19.79
